createdAt,value
2023-01-18T00:01:01.510Z,18.17
2023-01-18T00:03:28.579Z,17.92
2023-01-18T00:05:55.571Z,26.50
2023-01-18T00:08:22.238Z,28.48
2023-01-18T00:10:48.927Z,29.42
2023-01-18T00:13:15.565Z,31.15
2023-01-18T00:15:42.271Z,27.50
2023-01-18T00:18:09.116Z,23.90
2023-01-18T00:20:35.765Z,30.98
2023-01-18T00:23:02.576Z,22.15
2023-01-18T00:25:30.249Z,25.40
2023-01-18T00:27:57.375Z,33.78
2023-01-18T00:30:26.629Z,29.08
2023-01-18T00:32:56.435Z,26.25
2023-01-18T00:35:23.954Z,21.42
2023-01-18T00:37:51.738Z,31.50
2023-01-18T00:40:22.587Z,22.40
2023-01-18T00:43:08.088Z,27.73
2023-01-18T00:45:34.953Z,24.50
2023-01-18T00:48:03.478Z,23.70
2023-01-18T00:50:30.279Z,25.45
2023-01-18T00:53:00.468Z,21.52
2023-01-18T00:55:27.444Z,23.00
2023-01-18T00:57:54.097Z,24.92
2023-01-18T01:00:26.911Z,28.95
2023-01-18T01:02:54.476Z,25.38
2023-01-18T01:05:42.150Z,27.73
2023-01-18T01:08:09.066Z,29.52
2023-01-18T01:10:35.919Z,27.67
2023-01-18T01:13:21.580Z,23.17
2023-01-18T01:16:06.801Z,22.63
2023-01-18T01:18:52.102Z,23.95
2023-01-18T01:21:37.388Z,30.35
2023-01-18T01:24:23.013Z,26.00
2023-01-18T01:26:49.696Z,25.90
2023-01-18T01:29:16.928Z,21.67
2023-01-18T01:31:43.847Z,27.58
2023-01-18T01:34:10.626Z,27.92
2023-01-18T01:36:37.375Z,29.23
2023-01-18T01:39:04.296Z,24.70
2023-01-18T01:41:33.441Z,29.85
2023-01-18T01:44:04.734Z,24.77
2023-01-18T01:46:40.693Z,25.42
2023-01-18T01:49:09.290Z,30.48
2023-01-18T01:51:45.135Z,26.70
2023-01-18T01:54:28.741Z,28.55
2023-01-18T01:56:59.964Z,31.08
2023-01-18T01:59:26.789Z,30.60
2023-01-18T02:01:54.450Z,27.45
2023-01-18T02:04:21.244Z,20.55
2023-01-18T02:06:47.904Z,19.17
2023-01-18T02:09:23.241Z,26.33
2023-01-18T02:11:52.233Z,24.70
2023-01-18T02:14:19.805Z,28.05
2023-01-18T02:17:21.298Z,23.63
2023-01-18T02:19:55.436Z,25.17
2023-01-18T02:22:36.778Z,29.05
2023-01-18T02:25:38.853Z,27.40
2023-01-18T02:28:22.083Z,25.02
2023-01-18T02:31:02.977Z,20.77
2023-01-18T02:33:44.235Z,24.52
2023-01-18T02:36:28.645Z,26.02
2023-01-18T02:39:01.435Z,26.13
2023-01-18T02:41:53.745Z,23.08
2023-01-18T02:44:45.689Z,28.17
2023-01-18T02:47:12.411Z,28.40
2023-01-18T02:49:39.070Z,28.27
2023-01-18T02:52:08.068Z,25.33
2023-01-18T02:54:38.187Z,25.80
2023-01-18T02:57:09.464Z,25.45
2023-01-18T02:59:41.404Z,29.17
2023-01-18T03:02:17.072Z,31.20
2023-01-18T03:04:54.309Z,21.77
2023-01-18T03:07:27.378Z,27.65
2023-01-18T03:09:54.574Z,30.15
2023-01-18T03:12:46.132Z,27.10
2023-01-18T03:15:28.928Z,26.05
2023-01-18T03:18:01.008Z,27.10
2023-01-18T03:20:31.693Z,23.60
2023-01-18T03:23:22.410Z,27.15
2023-01-18T03:25:51.394Z,25.58
2023-01-18T03:28:42.599Z,26.45
2023-01-18T03:31:31.238Z,29.42
2023-01-18T03:34:04.101Z,25.35
2023-01-18T03:36:34.695Z,26.52
2023-01-18T03:39:07.741Z,22.92
2023-01-18T03:41:39.238Z,23.55
2023-01-18T03:44:17.075Z,26.27
2023-01-18T03:46:43.931Z,27.15
2023-01-18T03:49:11.457Z,24.65
2023-01-18T03:51:47.264Z,28.05
2023-01-18T03:54:21.208Z,22.40
2023-01-18T03:57:02.282Z,24.38
2023-01-18T03:59:33.842Z,25.58
2023-01-18T04:02:01.447Z,26.75
2023-01-18T04:04:28.187Z,27.95
2023-01-18T04:06:54.886Z,28.20
2023-01-18T04:09:21.596Z,25.15
2023-01-18T04:11:48.297Z,24.70
2023-01-18T04:14:15.071Z,24.02
2023-01-18T04:16:41.708Z,30.00
2023-01-18T04:19:08.787Z,23.80
2023-01-18T04:21:36.358Z,27.95
2023-01-18T04:24:03.028Z,26.73
2023-01-18T04:26:30.808Z,27.83
2023-01-18T04:28:57.437Z,26.27
2023-01-18T04:31:24.275Z,22.40
2023-01-18T04:33:51.702Z,28.95
2023-01-18T04:36:19.670Z,24.67
2023-01-18T04:38:46.566Z,28.42
2023-01-18T04:41:13.215Z,21.63
2023-01-18T04:43:39.851Z,34.88
2023-01-18T04:46:06.560Z,28.05
2023-01-18T04:48:34.471Z,23.98
2023-01-18T04:51:02.182Z,28.52
2023-01-18T04:53:28.800Z,26.02
2023-01-18T04:55:55.434Z,26.00
2023-01-18T04:58:22.089Z,33.83
2023-01-18T05:00:49.113Z,30.10
2023-01-18T05:03:16.231Z,28.95
2023-01-18T05:05:42.931Z,27.45
2023-01-18T05:08:09.566Z,27.02
2023-01-18T05:10:36.629Z,31.50
2023-01-18T05:13:03.788Z,30.88
2023-01-18T05:15:30.493Z,33.25
2023-01-18T05:17:57.169Z,28.38
2023-01-18T05:20:23.863Z,29.27
2023-01-18T05:22:50.551Z,28.90
2023-01-18T05:25:18.570Z,25.55
2023-01-18T05:27:45.235Z,20.00
2023-01-18T05:30:12.438Z,29.40
2023-01-18T05:32:39.192Z,32.30
2023-01-18T05:35:06.307Z,37.38
2023-01-18T05:37:33.011Z,27.10
2023-01-18T05:40:00.133Z,32.13
2023-01-18T05:42:27.028Z,30.67
2023-01-18T05:44:53.869Z,28.73
2023-01-18T05:47:20.544Z,21.77
2023-01-18T05:49:47.410Z,26.70
2023-01-18T05:52:14.080Z,32.58
2023-01-18T05:54:40.739Z,31.38
2023-01-18T05:57:07.397Z,32.28
2023-01-18T05:59:34.044Z,33.75
2023-01-18T06:02:00.793Z,39.00
2023-01-18T06:04:27.555Z,28.42
2023-01-18T06:06:54.192Z,29.35
2023-01-18T06:09:20.820Z,31.30
2023-01-18T06:11:48.677Z,28.92
2023-01-18T06:14:15.616Z,31.25
2023-01-18T06:16:43.332Z,29.10
2023-01-18T06:19:11.327Z,28.27
2023-01-18T06:21:37.972Z,34.85
2023-01-18T06:24:04.860Z,30.15
2023-01-18T06:26:31.649Z,32.17
2023-01-18T06:28:58.729Z,35.55
2023-01-18T06:31:25.546Z,27.95
2023-01-18T06:33:52.266Z,26.88
2023-01-18T06:36:18.928Z,24.95
2023-01-18T06:38:45.624Z,23.67
2023-01-18T06:41:12.296Z,41.33
2023-01-18T06:43:39.033Z,36.25
2023-01-18T06:46:08.400Z,26.65
2023-01-18T06:48:35.285Z,31.85
2023-01-18T06:51:01.984Z,34.40
2023-01-18T06:53:28.650Z,32.45
2023-01-18T06:55:57.080Z,36.28
2023-01-18T06:58:26.044Z,29.23
2023-01-18T07:00:57.621Z,32.15
2023-01-18T07:03:25.914Z,29.92
2023-01-18T07:05:57.424Z,28.27
2023-01-18T07:08:27.047Z,30.17
2023-01-18T07:10:54.402Z,23.15
2023-01-18T07:13:22.172Z,37.63
2023-01-18T07:16:01.142Z,27.42
2023-01-18T07:18:29.675Z,33.15
2023-01-18T07:21:07.754Z,28.23
2023-01-18T07:23:36.522Z,29.65
2023-01-18T07:26:04.858Z,41.47
2023-01-18T07:28:32.211Z,25.88
2023-01-18T07:30:59.134Z,25.20
2023-01-18T07:33:25.930Z,33.35
2023-01-18T07:35:56.631Z,35.30
2023-01-18T07:38:23.747Z,28.13
2023-01-18T07:40:50.904Z,36.08
2023-01-18T07:43:18.305Z,32.28
2023-01-18T07:45:52.893Z,28.90
2023-01-18T07:48:19.596Z,34.10
2023-01-18T07:50:53.586Z,24.85
2023-01-18T07:53:20.494Z,32.38
2023-01-18T07:55:47.219Z,39.30
2023-01-18T07:58:13.900Z,34.00
2023-01-18T08:00:40.616Z,32.20
2023-01-18T08:03:07.347Z,33.78
2023-01-18T08:05:34.895Z,32.05
2023-01-18T08:08:01.583Z,34.08
2023-01-18T08:10:28.406Z,27.42
2023-01-18T08:12:55.209Z,27.50
2023-01-18T08:15:21.865Z,29.13
2023-01-18T08:17:51.154Z,34.10
2023-01-18T08:20:18.358Z,27.40
2023-01-18T08:22:45.494Z,31.20
2023-01-18T08:25:14.451Z,28.33
2023-01-18T08:27:42.166Z,26.42
2023-01-18T08:30:12.623Z,35.15
2023-01-18T08:32:39.389Z,34.33
2023-01-18T08:35:08.585Z,36.22
2023-01-18T08:37:35.354Z,37.35
2023-01-18T08:40:02.030Z,30.35
2023-01-18T08:42:28.839Z,34.53
2023-01-18T08:44:55.516Z,30.67
2023-01-18T08:47:22.137Z,29.88
2023-01-18T08:49:48.931Z,38.92
2023-01-18T08:52:15.645Z,32.17
2023-01-18T08:54:42.390Z,36.13
2023-01-18T08:57:09.355Z,24.52
2023-01-18T08:59:36.072Z,36.45
2023-01-18T09:02:05.374Z,26.33
2023-01-18T09:04:34.435Z,33.35
2023-01-18T09:09:27.630Z,27.40
2023-01-18T09:11:56.181Z,25.50
2023-01-18T09:14:22.838Z,30.95
2023-01-18T09:16:50.228Z,32.63
2023-01-18T09:19:17.020Z,28.52
2023-01-18T09:21:45.921Z,23.17
2023-01-18T09:26:40.921Z,24.85
2023-01-18T09:29:07.904Z,29.83
2023-01-18T09:31:34.677Z,26.20
2023-01-18T09:34:18.441Z,28.13
2023-01-18T09:36:46.201Z,28.70
2023-01-18T09:39:12.849Z,26.83
2023-01-18T09:41:43.007Z,27.35
2023-01-18T09:44:32.717Z,29.02
2023-01-18T09:47:03.934Z,35.80
2023-01-18T09:49:55.101Z,33.03
2023-01-18T09:52:49.265Z,30.35
2023-01-18T09:55:27.762Z,25.55
2023-01-18T09:58:16.743Z,24.90
2023-01-18T10:00:47.216Z,23.63
2023-01-18T10:03:23.687Z,24.63
2023-01-18T10:06:09.201Z,39.00
2023-01-18T10:08:42.037Z,27.27
2023-01-18T10:11:14.394Z,23.15
2023-01-18T10:13:44.177Z,27.20
2023-01-18T10:16:16.446Z,25.67
2023-01-18T10:18:48.342Z,22.38
2023-01-18T10:21:47.568Z,25.20
2023-01-18T10:24:50.557Z,32.63
2023-01-18T10:27:48.616Z,23.35
2023-01-18T10:30:25.868Z,22.92
2023-01-18T10:32:58.258Z,30.23
2023-01-18T10:35:29.997Z,24.27
2023-01-18T10:38:03.332Z,25.52
2023-01-18T10:40:30.101Z,22.58
2023-01-18T10:43:04.119Z,25.35
2023-01-18T10:45:33.434Z,27.92
2023-01-18T10:48:20.051Z,25.30
2023-01-18T10:50:53.556Z,22.13
2023-01-18T10:53:36.645Z,24.40
2023-01-18T10:56:13.272Z,38.30
2023-01-18T10:58:52.921Z,26.92
2023-01-18T11:01:25.224Z,26.80
2023-01-18T11:03:55.445Z,27.88
2023-01-18T11:06:23.120Z,29.80
2023-01-18T11:08:53.631Z,25.92
2023-01-18T11:11:50.622Z,28.13
2023-01-18T11:14:29.642Z,23.02
2023-01-18T11:17:11.521Z,37.58
2023-01-18T11:19:39.441Z,24.17
2023-01-18T11:22:18.409Z,25.00
2023-01-18T11:24:45.139Z,27.88
2023-01-18T11:27:15.017Z,35.22
2023-01-18T11:29:43.653Z,34.95
2023-01-18T11:32:17.932Z,26.83
2023-01-18T11:34:49.138Z,24.85
2023-01-18T11:37:36.478Z,22.83
2023-01-18T11:40:26.950Z,28.05
2023-01-18T11:43:11.285Z,29.38
2023-01-18T11:45:48.320Z,28.10
2023-01-18T11:48:39.008Z,20.10
2023-01-18T11:51:21.085Z,29.13
2023-01-18T11:54:09.446Z,26.92
2023-01-18T11:56:45.411Z,26.42
2023-01-18T11:59:28.049Z,32.63
2023-01-18T12:02:40.251Z,39.50
2023-01-18T12:05:16.972Z,24.17
2023-01-18T12:07:49.782Z,31.52
2023-01-18T12:10:24.653Z,28.23
2023-01-18T12:13:14.456Z,33.00
2023-01-18T12:16:01.097Z,34.25
2023-01-18T12:18:57.249Z,24.52
2023-01-18T12:21:46.868Z,19.50
2023-01-18T12:24:37.640Z,35.38
2023-01-18T12:27:32.835Z,33.50
2023-01-18T12:30:37.041Z,23.55
2023-01-18T12:33:43.878Z,23.77
2023-01-18T12:36:22.345Z,29.83
2023-01-18T12:38:55.312Z,21.20
2023-01-18T12:41:32.713Z,29.55
2023-01-18T12:44:17.520Z,28.23
2023-01-18T12:47:13.181Z,29.10
2023-01-18T12:49:44.781Z,27.00
2023-01-18T12:52:18.798Z,27.08
2023-01-18T12:54:49.202Z,27.35
2023-01-18T12:57:17.227Z,23.98
2023-01-18T12:59:54.410Z,23.77
2023-01-18T13:02:27.209Z,21.20
2023-01-18T13:05:07.320Z,26.40
2023-01-18T13:07:43.287Z,28.55
2023-01-18T13:10:22.806Z,28.42
2023-01-18T13:12:50.707Z,29.40
2023-01-18T13:15:51.433Z,34.53
2023-01-18T13:18:24.024Z,29.35
2023-01-18T13:21:25.311Z,26.27
2023-01-18T13:23:54.995Z,45.88
2023-01-18T13:26:29.631Z,25.90
2023-01-18T13:29:07.425Z,24.83
2023-01-18T13:31:34.416Z,27.55
2023-01-18T13:34:01.115Z,26.98
2023-01-18T13:36:27.830Z,27.40
2023-01-18T13:38:57.700Z,26.75
2023-01-18T13:41:29.427Z,25.08
2023-01-18T13:44:01.434Z,27.45
2023-01-18T13:46:29.060Z,32.08
2023-01-18T13:49:02.127Z,31.90
2023-01-18T13:51:41.019Z,24.85
2023-01-18T13:54:09.682Z,26.05
2023-01-18T13:56:40.109Z,31.88
2023-01-18T13:59:12.899Z,31.67
2023-01-18T14:01:43.213Z,25.55
2023-01-18T14:04:28.165Z,25.65
2023-01-18T14:06:56.311Z,27.75
2023-01-18T14:09:52.335Z,25.13
2023-01-18T14:12:48.260Z,29.58
2023-01-18T14:15:29.040Z,30.08
2023-01-18T14:17:58.931Z,30.38
2023-01-18T14:20:53.516Z,25.75
2023-01-18T14:23:35.297Z,33.38
2023-01-18T14:26:05.965Z,34.45
2023-01-18T14:28:42.483Z,37.65
2023-01-18T14:31:15.510Z,28.42
2023-01-18T14:33:42.684Z,26.35
2023-01-18T14:36:26.868Z,36.60
2023-01-18T14:39:30.260Z,30.67
2023-01-18T14:42:00.668Z,37.83
2023-01-18T14:44:56.286Z,29.13
2023-01-18T14:47:26.259Z,43.47
2023-01-18T14:49:53.577Z,32.28
2023-01-18T14:52:20.988Z,29.20
2023-01-18T14:54:56.878Z,34.60
2023-01-18T14:57:24.101Z,37.13
2023-01-18T15:00:17.029Z,34.60
2023-01-18T15:02:43.936Z,38.17
2023-01-18T15:05:12.944Z,35.47
2023-01-18T15:07:40.763Z,45.88
2023-01-18T15:10:09.799Z,31.20
2023-01-18T15:15:11.523Z,47.30
2023-01-18T15:20:14.701Z,41.65
2023-01-18T15:22:42.197Z,46.90
2023-01-18T15:25:23.391Z,29.88
2023-01-18T15:27:51.965Z,37.33
2023-01-18T15:30:22.393Z,38.83
2023-01-18T15:32:53.483Z,44.33
2023-01-18T15:35:21.248Z,38.85
2023-01-18T15:37:48.289Z,46.70
2023-01-18T15:40:14.853Z,46.60
2023-01-18T15:42:44.311Z,53.42
2023-01-18T15:45:40.863Z,51.70
2023-01-18T15:48:22.948Z,42.35
2023-01-18T15:50:57.925Z,38.28
2023-01-18T15:53:27.515Z,41.20
2023-01-18T15:56:17.221Z,40.28
2023-01-18T15:58:47.397Z,45.85
2023-01-18T16:01:14.066Z,37.42
2023-01-18T16:03:53.866Z,44.03
2023-01-18T16:06:20.533Z,39.63
2023-01-18T16:09:11.522Z,45.15
2023-01-18T16:11:41.803Z,42.40
2023-01-18T16:14:38.384Z,50.38
2023-01-18T16:17:07.690Z,42.10
2023-01-18T16:19:40.750Z,51.40
2023-01-18T16:22:17.379Z,47.95
2023-01-18T16:24:52.396Z,38.33
2023-01-18T16:27:24.638Z,40.03
2023-01-18T16:29:56.939Z,52.67
2023-01-18T16:32:29.500Z,44.47
2023-01-18T16:35:01.528Z,49.05
2023-01-18T16:37:28.393Z,52.97
2023-01-18T16:39:55.439Z,43.40
2023-01-18T16:42:29.542Z,46.97
2023-01-18T16:45:04.322Z,55.03
2023-01-18T16:47:34.205Z,51.22
2023-01-18T16:50:01.988Z,53.60
2023-01-18T16:52:28.858Z,58.05
2023-01-18T16:54:55.574Z,48.47
2023-01-18T16:57:23.722Z,47.40
2023-01-18T16:59:50.687Z,49.42
2023-01-18T17:02:17.521Z,50.80
2023-01-18T17:04:45.492Z,62.70
2023-01-18T17:07:12.353Z,53.67
2023-01-18T17:09:48.313Z,47.60
2023-01-18T17:12:15.796Z,44.28
2023-01-18T17:14:42.465Z,53.83
2023-01-18T17:17:10.400Z,47.75
2023-01-18T17:19:38.296Z,54.75
2023-01-18T17:22:06.643Z,61.85
2023-01-18T17:24:33.418Z,62.35
2023-01-18T17:27:01.239Z,58.92
2023-01-18T17:29:28.021Z,55.03
2023-01-18T17:31:54.644Z,61.50
2023-01-18T17:34:28.185Z,75.93
2023-01-18T17:36:57.928Z,103.28
2023-01-18T17:39:32.002Z,96.88
2023-01-18T17:42:12.225Z,80.15
2023-01-18T17:44:41.199Z,73.85
2023-01-18T17:47:07.889Z,44.60
2023-01-18T17:49:34.553Z,51.75
2023-01-18T17:52:01.401Z,57.05
2023-01-18T17:54:28.659Z,50.92
2023-01-18T17:56:55.384Z,63.03
2023-01-18T17:59:23.899Z,55.60
2023-01-18T18:01:50.692Z,65.47
2023-01-18T18:04:17.533Z,64.18
2023-01-18T18:06:53.706Z,45.33
2023-01-18T18:09:21.065Z,48.17
2023-01-18T18:11:48.048Z,41.67
2023-01-18T18:14:14.764Z,56.15
2023-01-18T18:16:43.858Z,60.47
2023-01-18T18:19:14.647Z,48.47
2023-01-18T18:21:42.763Z,40.15
2023-01-18T18:24:09.468Z,43.40
2023-01-18T18:26:36.177Z,40.15
2023-01-18T18:29:02.883Z,40.40
2023-01-18T18:31:29.706Z,42.50
2023-01-18T18:33:56.512Z,42.95
2023-01-18T18:36:27.680Z,46.30
2023-01-18T18:38:54.779Z,46.72
2023-01-18T18:41:21.703Z,39.40
2023-01-18T18:43:48.433Z,46.40
2023-01-18T18:46:16.420Z,46.17
2023-01-18T18:48:43.104Z,46.25
2023-01-18T18:51:10.036Z,44.33
2023-01-18T18:53:39.738Z,41.58
2023-01-18T18:56:10.336Z,45.88
2023-01-18T18:58:38.343Z,43.53
2023-01-18T19:01:05.637Z,41.92
2023-01-18T19:03:32.629Z,46.38
2023-01-18T19:05:59.293Z,44.45
2023-01-18T19:08:25.941Z,40.30
2023-01-18T19:10:52.652Z,36.83
2023-01-18T19:13:19.484Z,39.00
2023-01-18T19:15:47.460Z,41.90
2023-01-18T19:18:14.914Z,46.60
2023-01-18T19:20:42.056Z,39.00
2023-01-18T19:23:09.649Z,34.28
2023-01-18T19:25:39.577Z,38.33
2023-01-18T19:28:06.537Z,40.53
2023-01-18T19:30:33.426Z,57.08
2023-01-18T19:33:00.340Z,50.08
2023-01-18T19:35:27.191Z,43.80
2023-01-18T19:37:54.264Z,43.30
2023-01-18T19:40:21.743Z,48.47
2023-01-18T19:42:55.827Z,46.38
2023-01-18T19:45:28.391Z,48.15
2023-01-18T19:47:58.290Z,44.35
2023-01-18T19:50:26.024Z,35.28
2023-01-18T19:52:53.939Z,41.55
2023-01-18T19:55:21.728Z,48.00
2023-01-18T19:57:49.225Z,34.53
2023-01-18T20:00:16.713Z,41.83
2023-01-18T20:02:43.849Z,42.22
2023-01-18T20:05:11.058Z,39.63
2023-01-18T20:07:40.954Z,30.70
2023-01-18T20:10:08.392Z,41.90
2023-01-18T20:12:35.396Z,38.65
2023-01-18T20:15:02.459Z,37.20
2023-01-18T20:17:29.897Z,44.60
2023-01-18T20:19:56.605Z,43.10
2023-01-18T20:22:23.527Z,43.75
2023-01-18T20:24:50.246Z,38.70
2023-01-18T20:27:17.251Z,40.30
2023-01-18T20:29:44.732Z,36.08
2023-01-18T20:32:17.076Z,31.80
2023-01-18T20:34:44.927Z,36.90
2023-01-18T20:37:12.827Z,26.35
2023-01-18T20:39:40.162Z,34.08
2023-01-18T20:42:06.985Z,32.03
2023-01-18T20:44:34.313Z,29.55
2023-01-18T20:47:01.280Z,31.48
2023-01-18T20:49:37.543Z,36.50
2023-01-18T20:52:06.791Z,35.78
2023-01-18T20:54:35.749Z,38.00
2023-01-18T20:57:03.436Z,37.50
2023-01-18T20:59:30.123Z,29.85
2023-01-18T21:01:57.027Z,21.58
2023-01-18T21:04:23.822Z,30.77
2023-01-18T21:06:50.449Z,29.48
2023-01-18T21:09:17.333Z,35.10
2023-01-18T21:11:44.385Z,28.77
2023-01-18T21:14:11.772Z,25.55
2023-01-18T21:16:38.439Z,37.08
2023-01-18T21:19:05.135Z,30.35
2023-01-18T21:21:31.993Z,27.38
2023-01-18T21:23:59.485Z,24.08
2023-01-18T21:26:26.351Z,27.10
2023-01-18T21:28:53.807Z,26.40
2023-01-18T21:31:20.876Z,27.98
2023-01-18T21:33:50.276Z,29.80
2023-01-18T21:36:18.364Z,31.80
2023-01-18T21:38:45.011Z,25.80
2023-01-18T21:41:30.506Z,29.50
2023-01-18T21:44:15.832Z,29.20
2023-01-18T21:46:46.883Z,29.38
2023-01-18T21:49:49.460Z,25.27
2023-01-18T21:52:38.887Z,24.48
2023-01-18T21:55:05.921Z,22.88
2023-01-18T21:57:32.575Z,26.73
2023-01-18T22:00:01.622Z,23.90
2023-01-18T22:02:28.415Z,25.75
2023-01-18T22:04:59.159Z,20.08
2023-01-18T22:07:27.290Z,24.13
2023-01-18T22:10:04.045Z,24.90
2023-01-18T22:12:32.675Z,23.17
2023-01-18T22:15:02.215Z,27.08
2023-01-18T22:17:29.085Z,25.83
2023-01-18T22:19:55.918Z,24.23
2023-01-18T22:22:22.591Z,15.90
2023-01-18T22:24:49.258Z,32.70
2023-01-18T22:27:15.960Z,29.23
2023-01-18T22:29:42.621Z,24.33
2023-01-18T22:32:09.328Z,24.60
2023-01-18T22:34:36.365Z,25.48
2023-01-18T22:37:03.414Z,22.55
2023-01-18T22:39:30.094Z,30.02
2023-01-18T22:41:56.951Z,27.15
2023-01-18T22:44:24.026Z,24.27
2023-01-18T22:46:50.771Z,24.00
2023-01-18T22:49:17.621Z,21.10
2023-01-18T22:51:44.481Z,31.73
2023-01-18T22:54:11.171Z,21.92
2023-01-18T22:56:37.828Z,24.25
2023-01-18T22:59:04.541Z,27.38
2023-01-18T23:01:32.575Z,27.10
2023-01-18T23:04:03.464Z,24.50
2023-01-18T23:06:42.344Z,27.60
2023-01-18T23:09:09.959Z,35.92
2023-01-18T23:11:36.709Z,27.50
2023-01-18T23:14:22.233Z,26.67
2023-01-18T23:17:07.389Z,22.38
2023-01-18T23:19:36.500Z,25.98
2023-01-18T23:24:37.017Z,20.52
2023-01-18T23:27:07.683Z,24.20
2023-01-18T23:29:34.402Z,20.88
2023-01-18T23:32:01.348Z,24.52
2023-01-18T23:34:28.314Z,32.47
2023-01-18T23:36:55.333Z,20.05
2023-01-18T23:39:40.509Z,26.20
2023-01-18T23:42:25.596Z,25.33
2023-01-18T23:45:11.258Z,24.10
2023-01-18T23:47:56.800Z,22.52
2023-01-18T23:50:42.069Z,21.20
2023-01-18T23:53:31.356Z,26.27
2023-01-18T23:55:58.654Z,23.33
